Exuberant — WDF4052 — position and weather

sailwx.info

Track history (hours):
 
Tides and Currents Weather Stations Pressure Air Temp Water Temp Dewpoint Dewpoint Depression Visibility Wind Speed Wind Dir Waves Ship Positions

Exuberant

Owner: Preston, Burton L, Mansfield, OH. More information available from US FCC via Universal Licensing System and Coast Guard Vessel Documentation Center.

Last reported at 2018-Jun-15 15:25 UTC. Time now 2018-Jun-21 18:12 UTC.
Position N 41°15' W 072°16'.

Length 14 m.

Type: Sailing vessel. MMSI: 367447410.

Date/timePositionNaut miles runAvg speedWind from/ knotsBaromVisibWave heightAir tempDewpointWater temp
2018-Jun-15 15:25N 41°15' W 072°16'2 4.8
2018-Jun-15 15:00N 41°14' W 072°18'3 4.6
2018-Jun-15 14:18N 41°13' W 072°22'2 5.5
2018-Jun-15 14:00N 41°12' W 072°24'3 5.9
2018-Jun-15 13:27N 41°11' W 072°28'72 2.9
2018-Jun-14 12:43N 40°45' W 073°58'4 8.6
2018-Jun-14 12:17N 40°42' W 074°01'2 7.9
2018-Jun-14 12:00N 40°40' W 074°03'55 2.7
2018-Jun-13 15:38N 39°45' W 073°58'3 7.2
2018-Jun-13 15:10N 39°42' W 073°60'3 7.2
2018-Jun-13 14:46N 39°40' W 074°01'65 5.6
2018-Jun-13 03:15N 39°06' W 075°13'3 7.3
2018-Jun-13 02:49N 39°09' W 075°15'2 6.6
2018-Jun-13 02:28N 39°11' W 075°16'3 5.9
2018-Jun-13 02:00N 39°13' W 075°18'3 5.1
2018-Jun-13 01:30N 39°15' W 075°20'2 3.7
2018-Jun-13 00:59N 39°17' W 075°21'2 3.3
2018-Jun-13 00:30N 39°18' W 075°23'1 2.9
2018-Jun-13 00:00N 39°19' W 075°24'1 2.5
2018-Jun-12 23:30N 39°20' W 075°25'1 2.5
2018-Jun-12 23:00N 39°21' W 075°26'1 2.5
2018-Jun-12 22:30N 39°22' W 075°28'1 2.8
2018-Jun-12 22:00N 39°23' W 075°28'2 3.9
2018-Jun-12 21:30N 39°24' W 075°30'2 4.6
2018-Jun-12 21:00N 39°26' W 075°31'3 6.2
2018-Jun-12 20:30N 39°29' W 075°33'3 5.2
2018-Jun-12 20:00N 39°32' W 075°33'3 5.2
2018-Jun-12 19:29N 39°33' W 075°36'3 6.6
2018-Jun-12 19:01N 39°33' W 075°40'4 6.4
2018-Jun-12 18:27N 39°32' W 075°44'3 6.1
2018-Jun-12 18:00N 39°32' W 075°48'3 5.8
2018-Jun-12 17:27N 39°32' W 075°52'3 6.0
2018-Jun-12 17:00N 39°30' W 075°55'3 6.3
2018-Jun-12 16:29N 39°28' W 075°58'38 1.9
2018-Jun-11 20:16N 38°56' W 076°24'2 7.2
2018-Jun-11 20:01N 38°54' W 076°25'3 6.4
2018-Jun-11 19:29N 38°52' W 076°29'  
Track history (hours):
 
Tides and Currents Weather Stations Pressure Air Temp Water Temp Dewpoint Dewpoint Depression Visibility Wind Speed Wind Dir Waves Ship Positions

Exuberant

Owner: Preston, Burton L, Mansfield, OH. More information available from US FCC via Universal Licensing System and Coast Guard Vessel Documentation Center.

Last reported at 2018-Jun-15 15:25 UTC. Time now 2018-Jun-21 18:12 UTC.
Position N 41°15' W 072°16'.

Length 14 m.

Type: Sailing vessel. MMSI: 367447410.

Date/timePositionNaut miles runAvg speedWind from/ knotsBaromVisibWave heightAir tempDewpointWater temp
2018-Jun-15 15:25N 41°15' W 072°16'2 4.8
2018-Jun-15 15:00N 41°14' W 072°18'3 4.6
2018-Jun-15 14:18N 41°13' W 072°22'2 5.5
2018-Jun-15 14:00N 41°12' W 072°24'3 5.9
2018-Jun-15 13:27N 41°11' W 072°28'72 2.9
2018-Jun-14 12:43N 40°45' W 073°58'4 8.6
2018-Jun-14 12:17N 40°42' W 074°01'2 7.9
2018-Jun-14 12:00N 40°40' W 074°03'55 2.7
2018-Jun-13 15:38N 39°45' W 073°58'3 7.2
2018-Jun-13 15:10N 39°42' W 073°60'3 7.2
2018-Jun-13 14:46N 39°40' W 074°01'65 5.6
2018-Jun-13 03:15N 39°06' W 075°13'3 7.3
2018-Jun-13 02:49N 39°09' W 075°15'2 6.6
2018-Jun-13 02:28N 39°11' W 075°16'3 5.9
2018-Jun-13 02:00N 39°13' W 075°18'3 5.1
2018-Jun-13 01:30N 39°15' W 075°20'2 3.7
2018-Jun-13 00:59N 39°17' W 075°21'2 3.3
2018-Jun-13 00:30N 39°18' W 075°23'1 2.9
2018-Jun-13 00:00N 39°19' W 075°24'1 2.5
2018-Jun-12 23:30N 39°20' W 075°25'1 2.5
2018-Jun-12 23:00N 39°21' W 075°26'1 2.5
2018-Jun-12 22:30N 39°22' W 075°28'1 2.8
2018-Jun-12 22:00N 39°23' W 075°28'2 3.9
2018-Jun-12 21:30N 39°24' W 075°30'2 4.6
2018-Jun-12 21:00N 39°26' W 075°31'3 6.2
2018-Jun-12 20:30N 39°29' W 075°33'3 5.2
2018-Jun-12 20:00N 39°32' W 075°33'3 5.2
2018-Jun-12 19:29N 39°33' W 075°36'3 6.6
2018-Jun-12 19:01N 39°33' W 075°40'4 6.4
2018-Jun-12 18:27N 39°32' W 075°44'3 6.1
2018-Jun-12 18:00N 39°32' W 075°48'3 5.8
2018-Jun-12 17:27N 39°32' W 075°52'3 6.0
2018-Jun-12 17:00N 39°30' W 075°55'3 6.3
2018-Jun-12 16:29N 39°28' W 075°58'38 1.9
2018-Jun-11 20:16N 38°56' W 076°24'2 7.2
2018-Jun-11 20:01N 38°54' W 076°25'3 6.4
2018-Jun-11 19:29N 38°52' W 076°29'  

Dump ship's entire track history